Time;durP1;ratioP1;P1;durP2;ratioP2;P2;SDS_P1;SDS_P2;PMS_P1;PMS_P2;Temp;Humidity;BMP_temperature;BMP_pressure;BME280_temperature;BME280_humidity;BME280_pressure;Samples;Min_cycle;Max_cycle;Signal;HPM_P1;HPM_P2
2021/10/02 00:45:32;;;;;;;4.38;1.02;;;12.80;99.90;;;;;;5037090;28;20169;-91
2021/10/02 00:48:02;;;;;;;3.30;1.05;;;12.80;99.90;;;;;;5019591;28;20230;-90
2021/10/02 00:50:29;;;;;;;1.77;0.95;;;12.90;99.90;;;;;;5020309;28;20646;-90
2021/10/02 00:53:01;;;;;;;1.58;1.10;;;12.90;99.90;;;;;;5019583;28;20199;-91
2021/10/02 00:55:36;;;;;;;2.92;1.40;;;12.90;99.90;;;;;;5019923;28;20163;-90
2021/10/02 00:58:04;;;;;;;3.28;1.10;;;12.90;99.90;;;;;;5019882;28;20198;-89
2021/10/02 01:00:33;;;;;;;3.42;1.17;;;12.90;99.90;;;;;;5019582;28;20181;-90
2021/10/02 01:03:38;;;;;;;1.98;1.10;;;12.90;99.90;;;;;;5020057;28;20170;-90
2021/10/02 01:06:30;;;;;;;2.35;1.10;;;12.90;99.90;;;;;;5019869;28;20174;-91
2021/10/02 01:09:45;;;;;;;3.63;1.30;;;12.90;99.90;;;;;;5019435;28;20226;-91
2021/10/02 01:12:27;;;;;;;1.90;0.95;;;13.00;99.90;;;;;;5011234;28;20255;-90
2021/10/02 01:15:01;;;;;;;2.80;1.10;;;13.00;99.90;;;;;;5019997;28;20254;-91
2021/10/02 01:17:58;;;;;;;1.90;1.10;;;13.00;99.90;;;;;;5019508;28;20193;-90
2021/10/02 01:20:52;;;;;;;1.85;1.10;;;13.00;99.90;;;;;;5019720;28;20642;-90
2021/10/02 01:23:22;;;;;;;3.45;1.08;;;13.00;99.90;;;;;;5019610;28;20171;-90
2021/10/02 01:26:08;;;;;;;3.13;1.17;;;13.00;99.90;;;;;;5019688;28;20240;-90
2021/10/02 01:28:40;;;;;;;5.57;1.33;;;13.00;99.90;;;;;;5019388;28;20202;-91
2021/10/02 01:31:35;;;;;;;1.52;1.02;;;13.00;99.90;;;;;;5019830;28;20202;-91
2021/10/02 01:34:18;;;;;;;1.52;1.08;;;13.00;99.90;;;;;;5019614;28;20200;-92
2021/10/02 01:48:44;;;;;;;3.83;1.20;;;12.90;99.90;;;;;;5037010;28;20226;-90
2021/10/02 01:51:28;;;;;;;4.05;1.33;;;12.90;99.90;;;;;;5019457;28;20182;-91
2021/10/02 01:54:03;;;;;;;3.72;1.23;;;12.90;99.90;;;;;;5018464;28;20198;-90
2021/10/02 01:56:32;;;;;;;2.20;1.30;;;12.90;99.90;;;;;;5018497;28;20166;-90
2021/10/02 01:59:14;;;;;;;2.28;1.00;;;12.90;99.90;;;;;;5018176;28;20249;-90
2021/10/02 02:01:45;;;;;;;4.25;1.17;;;12.90;99.90;;;;;;5017930;28;20266;-91
2021/10/02 02:04:13;;;;;;;2.22;1.35;;;12.90;99.90;;;;;;5017967;28;20181;-91
2021/10/02 02:06:42;;;;;;;3.13;1.23;;;12.90;99.90;;;;;;5018399;28;20178;-92
2021/10/02 02:09:11;;;;;;;2.55;1.33;;;12.90;99.90;;;;;;5017880;28;20199;-91
2021/10/02 02:11:39;;;;;;;1.83;1.27;;;12.90;99.90;;;;;;5017585;28;20265;-91
2021/10/02 02:14:10;;;;;;;2.75;1.17;;;12.90;99.90;;;;;;5019382;28;20229;-90
2021/10/02 02:16:38;;;;;;;3.20;0.98;;;12.90;99.90;;;;;;5019344;28;20171;-92
2021/10/02 02:19:49;;;;;;;6.10;1.10;;;12.90;99.90;;;;;;5018276;28;20229;-92
2021/10/02 02:22:27;;;;;;;4.38;0.90;;;12.90;99.90;;;;;;5017224;28;20170;-91
2021/10/02 02:24:54;;;;;;;3.22;1.23;;;12.90;99.90;;;;;;5017219;28;20206;-92
2021/10/02 02:27:20;;;;;;;1.80;1.15;;;12.90;99.90;;;;;;5016803;28;20178;-92
2021/10/02 02:30:14;;;;;;;4.40;1.20;;;12.90;99.90;;;;;;5016845;28;20682;-94
2021/10/02 02:32:54;;;;;;;2.72;1.20;;;12.90;99.90;;;;;;5016893;28;20208;-92
2021/10/02 02:35:21;;;;;;;3.95;0.95;;;12.90;99.90;;;;;;5016667;28;20577;-91
2021/10/02 02:37:55;;;;;;;3.78;1.30;;;12.90;99.90;;;;;;5016635;28;20170;-91
2021/10/02 02:40:25;;;;;;;2.83;1.10;;;12.90;99.90;;;;;;5016927;28;20170;-90
2021/10/02 02:42:56;;;;;;;2.35;0.90;;;12.80;99.90;;;;;;5016929;28;20265;-92
2021/10/02 02:45:32;;;;;;;3.78;1.30;;;12.90;99.90;;;;;;5016851;28;20221;-90
2021/10/02 02:48:05;;;;;;;3.40;1.10;;;12.80;99.90;;;;;;5016645;28;20198;-91
2021/10/02 02:51:11;;;;;;;3.65;1.20;;;12.80;99.90;;;;;;5016691;28;20258;-92
2021/10/02 02:53:48;;;;;;;1.98;1.13;;;12.80;99.90;;;;;;5016430;28;20194;-91
2021/10/02 02:56:35;;;;;;;4.60;1.15;;;12.80;99.90;;;;;;5016736;28;20194;-90
2021/10/02 02:59:11;;;;;;;2.17;1.10;;;12.80;99.90;;;;;;5016410;28;20198;-90
2021/10/02 03:01:40;;;;;;;2.97;1.30;;;12.80;99.90;;;;;;5016470;28;20194;-92
2021/10/02 03:04:11;;;;;;;3.70;1.40;;;12.70;99.90;;;;;;5016428;28;20175;-90
2021/10/02 03:06:43;;;;;;;2.70;1.42;;;12.70;99.90;;;;;;5016777;28;20648;-92
2021/10/02 03:09:24;;;;;;;2.53;1.35;;;12.70;99.90;;;;;;5019916;28;20670;-91
2021/10/02 03:12:05;;;;;;;3.90;0.95;;;12.70;99.90;;;;;;5020168;28;20574;-91
2021/10/02 03:14:35;;;;;;;4.60;1.45;;;12.70;99.90;;;;;;5019644;28;20666;-90
2021/10/02 03:17:01;;;;;;;2.60;1.40;;;12.70;99.90;;;;;;5019927;28;20282;-91
2021/10/02 03:19:38;;;;;;;3.63;1.77;;;12.60;99.90;;;;;;5019312;28;20222;-90
2021/10/02 03:22:07;;;;;;;4.07;1.30;;;12.60;99.90;;;;;;5019679;28;20216;-93
2021/10/02 03:24:47;;;;;;;2.17;1.20;;;12.60;99.90;;;;;;5019886;28;20170;-92
2021/10/02 03:27:15;;;;;;;1.60;1.20;;;12.60;99.90;;;;;;5019316;28;20170;-92
2021/10/02 03:30:14;;;;;;;2.13;1.17;;;12.60;99.90;;;;;;5019125;28;20225;-91
2021/10/02 03:33:13;;;;;;;2.80;1.20;;;12.60;99.90;;;;;;5019272;28;20194;-90
2021/10/02 03:35:41;;;;;;;2.70;1.20;;;12.60;99.90;;;;;;5019049;28;20650;-91
2021/10/02 03:38:07;;;;;;;3.70;1.20;;;12.60;99.90;;;;;;5019122;28;20211;-91
2021/10/02 03:43:45;;;;;;;3.55;1.25;;;12.60;99.90;;;;;;5036963;28;20163;-91
2021/10/02 03:46:14;;;;;;;3.22;1.27;;;12.60;99.90;;;;;;5019033;28;20575;-91
2021/10/02 03:48:40;;;;;;;2.58;1.35;;;12.60;99.90;;;;;;5018808;28;20670;-93
2021/10/02 03:51:47;;;;;;;3.90;1.40;;;12.60;99.90;;;;;;5018946;28;20182;-91
2021/10/02 03:54:16;;;;;;;1.25;0.98;;;12.60;99.90;;;;;;5018825;28;20213;-91
2021/10/02 03:56:50;;;;;;;4.00;1.40;;;12.60;99.90;;;;;;5018702;28;20166;-91
2021/10/02 03:59:29;;;;;;;2.92;1.23;;;12.50;99.90;;;;;;5018654;28;20194;-93
2021/10/02 04:02:09;;;;;;;2.05;1.30;;;12.50;99.90;;;;;;5036363;28;20179;-92
2021/10/02 04:05:14;;;;;;;3.60;1.23;;;12.50;99.90;;;;;;5018660;28;20277;-92
2021/10/02 04:07:51;;;;;;;2.58;1.52;;;12.50;99.90;;;;;;5035140;28;20537;-92
2021/10/02 04:10:40;;;;;;;3.78;1.70;;;12.50;99.90;;;;;;5018591;28;20261;-93
2021/10/02 04:13:13;;;;;;;2.03;1.40;;;12.50;99.90;;;;;;5018372;28;20218;-92
2021/10/02 04:15:44;;;;;;;2.55;1.40;;;12.50;99.90;;;;;;5018432;28;20213;-91
2021/10/02 04:18:13;;;;;;;4.18;1.70;;;12.40;99.90;;;;;;5017460;28;20246;-90
2021/10/02 04:24:02;;;;;;;4.70;1.88;;;12.40;99.90;;;;;;5036369;28;20170;-91
2021/10/02 04:26:36;;;;;;;5.55;1.67;;;12.40;99.90;;;;;;5018233;28;20170;-91
2021/10/02 04:29:13;;;;;;;2.50;1.15;;;12.40;99.90;;;;;;5018149;28;20691;-91
2021/10/02 04:32:12;;;;;;;4.53;1.65;;;12.40;99.90;;;;;;5018313;28;20170;-91
2021/10/02 04:34:40;;;;;;;3.33;1.60;;;12.40;99.90;;;;;;5018113;28;20178;-91
2021/10/02 04:37:06;;;;;;;2.60;1.50;;;12.40;99.90;;;;;;5018273;28;20174;-92
2021/10/02 04:39:31;;;;;;;4.53;1.60;;;12.40;99.90;;;;;;5018125;28;20202;-91
2021/10/02 04:42:15;;;;;;;3.75;1.95;;;12.40;99.90;;;;;;5018075;28;20193;-92
2021/10/02 04:44:41;;;;;;;3.88;1.77;;;12.40;99.90;;;;;;5017954;28;20170;-91
2021/10/02 04:47:07;;;;;;;4.85;1.92;;;12.40;99.90;;;;;;5017950;28;20269;-93
2021/10/02 04:49:45;;;;;;;4.30;1.83;;;12.40;99.90;;;;;;5017959;28;20286;-92
2021/10/02 04:52:13;;;;;;;3.88;1.70;;;12.40;99.90;;;;;;5017788;28;20563;-92
2021/10/02 04:54:42;;;;;;;4.10;1.60;;;12.40;99.90;;;;;;5017969;28;20218;-91
2021/10/02 04:57:08;;;;;;;3.30;1.90;;;12.40;99.90;;;;;;5017884;28;20225;-92
2021/10/02 04:59:42;;;;;;;4.65;1.70;;;12.50;99.90;;;;;;5018029;28;20579;-92
2021/10/02 05:02:17;;;;;;;5.57;1.55;;;12.50;99.90;;;;;;5018535;28;20198;-93
2021/10/02 05:04:45;;;;;;;4.55;1.90;;;12.40;99.90;;;;;;5018132;28;20173;-92
2021/10/02 05:07:10;;;;;;;3.58;1.60;;;12.40;99.90;;;;;;5017825;28;20171;-92
2021/10/02 05:09:42;;;;;;;3.33;1.60;;;12.40;99.90;;;;;;5017364;28;20285;-92
2021/10/02 05:12:09;;;;;;;3.63;1.75;;;12.40;99.90;;;;;;5017807;28;20273;-91
2021/10/02 05:14:36;;;;;;;4.03;1.48;;;12.30;99.90;;;;;;5018019;28;20207;-91
2021/10/02 05:17:04;;;;;;;3.58;1.63;;;12.30;99.90;;;;;;5018512;28;20167;-91
2021/10/02 05:19:33;;;;;;;3.92;1.80;;;12.40;99.90;;;;;;5017076;28;20301;-91
2021/10/02 05:22:06;;;;;;;2.72;1.60;;;12.40;99.90;;;;;;5017482;28;20178;-90
2021/10/02 05:24:37;;;;;;;4.65;1.95;;;12.30;99.90;;;;;;5017328;28;20210;-91
2021/10/02 05:27:34;;;;;;;2.80;1.90;;;12.40;99.90;;;;;;5017464;28;20182;-93
2021/10/02 05:30:05;;;;;;;4.05;1.80;;;12.40;99.90;;;;;;5013724;28;20625;-91
2021/10/02 05:32:44;;;;;;;5.35;1.88;;;12.40;99.90;;;;;;5017146;28;20189;-92
2021/10/02 05:35:14;;;;;;;4.85;2.05;;;12.40;99.90;;;;;;5017106;28;20646;-91
2021/10/02 05:37:52;;;;;;;4.30;2.10;;;12.40;99.90;;;;;;5017160;28;20542;-92
2021/10/02 05:40:18;;;;;;;2.45;1.70;;;12.30;99.90;;;;;;5017283;28;20261;-91
2021/10/02 05:42:52;;;;;;;4.45;1.92;;;12.30;99.90;;;;;;5017118;28;20592;-91
2021/10/02 05:45:27;;;;;;;4.47;2.15;;;12.40;99.90;;;;;;5016893;28;20185;-93
2021/10/02 05:47:53;;;;;;;3.85;1.88;;;12.40;99.90;;;;;;5016854;28;20178;-92
2021/10/02 05:50:25;;;;;;;4.72;2.10;;;12.40;99.90;;;;;;5016759;28;20229;-91
2021/10/02 05:53:13;;;;;;;3.55;2.17;;;12.50;99.90;;;;;;5016771;28;20665;-93
2021/10/02 05:55:54;;;;;;;5.78;2.08;;;12.40;99.90;;;;;;5016776;28;20171;-91
2021/10/02 05:58:20;;;;;;;3.53;1.98;;;12.40;99.90;;;;;;5016826;28;20592;-92
2021/10/02 06:00:57;;;;;;;7.03;2.03;;;12.50;99.90;;;;;;5016671;28;20185;-94
2021/10/02 06:03:26;;;;;;;3.05;1.95;;;12.50;99.90;;;;;;5016834;28;20189;-91
2021/10/02 06:06:03;;;;;;;4.00;1.80;;;12.50;99.90;;;;;;5016822;28;20538;-93
2021/10/02 06:08:30;;;;;;;4.00;1.70;;;12.60;99.90;;;;;;5016496;28;20200;-91
2021/10/02 06:11:00;;;;;;;3.95;1.55;;;12.60;99.90;;;;;;5016592;28;20209;-92
2021/10/02 06:13:38;;;;;;;3.72;1.70;;;12.60;99.90;;;;;;5016499;28;20291;-91
2021/10/02 06:16:21;;;;;;;2.45;1.40;;;12.60;99.90;;;;;;5016619;28;20197;-93
2021/10/02 06:19:03;;;;;;;3.10;1.40;;;12.60;99.90;;;;;;5016321;28;20576;-91
2021/10/02 06:21:29;;;;;;;4.15;1.60;;;12.60;99.90;;;;;;5016689;28;20175;-93
2021/10/02 06:24:00;;;;;;;2.33;1.45;;;12.60;99.90;;;;;;5016604;28;20175;-91
2021/10/02 06:26:28;;;;;;;2.30;1.35;;;12.60;99.90;;;;;;5016448;28;20171;-93
2021/10/02 06:29:05;;;;;;;4.70;1.70;;;12.60;99.90;;;;;;5016553;28;20194;-91
2021/10/02 06:31:50;;;;;;;4.47;1.63;;;12.60;99.90;;;;;;5016473;28;20186;-91
2021/10/02 06:34:15;;;;;;;2.83;1.67;;;12.70;99.90;;;;;;5016423;28;20194;-92
2021/10/02 06:36:48;;;;;;;2.70;1.05;;;12.70;99.90;;;;;;5016448;28;20220;-91
2021/10/02 06:39:15;;;;;;;9.95;1.55;;;12.90;99.90;;;;;;5016056;28;20247;-90
2021/10/02 06:41:41;;;;;;;3.85;1.50;;;12.90;99.90;;;;;;5016728;28;20178;-91
2021/10/02 06:44:19;;;;;;;3.25;1.40;;;13.00;99.90;;;;;;5020189;28;20171;-91
2021/10/02 06:47:01;;;;;;;3.42;1.48;;;13.00;99.90;;;;;;5020237;28;20186;-93
2021/10/02 06:49:45;;;;;;;4.32;1.40;;;13.00;99.90;;;;;;5019985;28;20669;-92
2021/10/02 06:52:15;;;;;;;3.22;1.25;;;13.00;99.90;;;;;;5020107;28;20170;-91
2021/10/02 06:54:48;;;;;;;1.48;1.10;;;13.00;99.90;;;;;;5020070;28;20225;-92
2021/10/02 06:57:15;;;;;;;3.47;1.38;;;13.00;99.90;;;;;;5019873;28;20641;-90
2021/10/02 06:59:48;;;;;;;2.08;1.20;;;13.00;99.90;;;;;;5020059;28;20309;-90
2021/10/02 07:02:14;;;;;;;2.03;1.40;;;13.00;99.90;;;;;;5019833;28;20166;-91
2021/10/02 07:04:49;;;;;;;2.42;1.30;;;13.10;99.90;;;;;;5019803;28;20270;-91
2021/10/02 07:07:16;;;;;;;5.63;1.60;;;13.10;99.90;;;;;;5019893;28;20221;-90
2021/10/02 07:10:02;;;;;;;2.65;1.40;;;13.10;99.90;;;;;;5019770;28;20199;-91
2021/10/02 07:12:37;;;;;;;3.00;1.25;;;13.10;99.90;;;;;;5019603;28;20174;-91
2021/10/02 07:15:20;;;;;;;4.00;1.10;;;13.20;99.90;;;;;;5019646;28;20167;-92
2021/10/02 07:17:46;;;;;;;2.35;1.38;;;13.10;99.90;;;;;;5019432;28;20200;-92
2021/10/02 07:20:22;;;;;;;2.95;1.25;;;13.20;99.90;;;;;;5019211;28;20218;-91
2021/10/02 07:23:00;;;;;;;3.92;1.30;;;13.20;99.90;;;;;;5019307;28;20190;-92
2021/10/02 07:25:39;;;;;;;2.67;1.48;;;13.20;99.90;;;;;;5019430;28;20205;-91
2021/10/02 07:28:05;;;;;;;1.85;1.23;;;13.20;99.90;;;;;;5019159;28;20198;-92
2021/10/02 07:30:34;;;;;;;2.00;1.10;;;13.30;99.90;;;;;;5019235;28;20233;-91
2021/10/02 07:33:01;;;;;;;3.50;1.30;;;13.30;99.90;;;;;;5019285;28;20205;-91
2021/10/02 07:35:27;;;;;;;6.18;1.35;;;13.30;99.90;;;;;;5018561;28;20191;-90
2021/10/02 07:37:53;;;;;;;2.20;1.10;;;13.30;99.90;;;;;;5018985;28;20171;-91
2021/10/02 07:40:36;;;;;;;4.68;1.65;;;13.40;99.90;;;;;;5019089;28;20518;-92
2021/10/02 07:43:12;;;;;;;4.20;1.35;;;13.40;99.90;;;;;;5019901;28;20194;-92
2021/10/02 07:45:42;;;;;;;5.25;1.58;;;13.40;99.90;;;;;;5019196;28;20213;-91
2021/10/02 07:48:09;;;;;;;5.78;1.63;;;13.40;99.90;;;;;;5018797;28;20206;-92
2021/10/02 07:50:45;;;;;;;3.58;1.60;;;13.30;99.90;;;;;;5018923;28;20261;-91
2021/10/02 07:53:24;;;;;;;5.13;1.80;;;13.40;99.90;;;;;;5018932;28;20199;-91
2021/10/02 07:55:55;;;;;;;2.92;1.40;;;13.30;99.90;;;;;;5018855;28;20173;-90
2021/10/02 07:58:22;;;;;;;5.57;1.70;;;13.30;99.90;;;;;;5018795;28;20232;-91
2021/10/02 08:00:56;;;;;;;2.53;1.30;;;13.40;99.90;;;;;;5018859;28;20215;-91
2021/10/02 08:03:26;;;;;;;2.03;1.50;;;13.40;99.90;;;;;;5018911;28;20639;-92
2021/10/02 08:06:11;;;;;;;2.97;1.40;;;13.40;99.90;;;;;;5018654;28;20197;-91
2021/10/02 08:08:43;;;;;;;3.55;1.50;;;13.50;99.90;;;;;;5018593;28;20685;-91
2021/10/02 08:11:10;;;;;;;2.88;1.52;;;13.50;99.90;;;;;;5018580;28;20650;-92
2021/10/02 08:13:39;;;;;;;2.53;1.40;;;13.60;99.90;;;;;;5018529;28;20666;-91
2021/10/02 08:16:42;;;;;;;5.07;1.70;;;13.60;99.90;;;;;;5018623;28;20514;-91
2021/10/02 08:19:12;;;;;;;2.85;1.40;;;13.70;99.90;;;;;;5018140;28;20222;-90
2021/10/02 08:21:40;;;;;;;2.53;1.55;;;13.80;99.90;;;;;;5018320;28;20175;-91
2021/10/02 08:24:26;;;;;;;3.63;1.92;;;13.90;99.90;;;;;;5018482;28;20178;-91
2021/10/02 08:27:02;;;;;;;2.75;1.40;;;14.00;99.90;;;;;;5018591;28;20179;-92
2021/10/02 08:29:34;;;;;;;3.42;1.73;;;14.10;99.90;;;;;;5018036;28;20200;-91
2021/10/02 08:32:17;;;;;;;3.40;1.60;;;14.20;99.90;;;;;;5018125;28;20210;-92
2021/10/02 08:34:44;;;;;;;4.38;1.77;;;14.30;99.90;;;;;;5018229;28;20202;-91
2021/10/02 08:37:10;;;;;;;4.72;1.83;;;14.40;99.90;;;;;;5018362;28;20170;-92
2021/10/02 08:39:42;;;;;;;3.90;1.75;;;14.50;99.90;;;;;;5017967;28;20230;-91
2021/10/02 08:42:26;;;;;;;3.53;1.48;;;14.50;99.90;;;;;;5018077;28;20171;-91
2021/10/02 08:45:04;;;;;;;5.82;1.90;;;14.60;99.90;;;;;;5018247;28;20162;-91
2021/10/02 08:47:34;;;;;;;2.78;1.60;;;14.60;99.90;;;;;;5018068;28;20189;-90
2021/10/02 08:50:39;;;;;;;2.78;1.52;;;14.60;99.90;;;;;;5017994;28;20194;-89
2021/10/02 08:53:05;;;;;;;4.13;1.67;;;14.60;99.90;;;;;;5017962;28;20561;-90
2021/10/02 08:55:34;;;;;;;3.63;1.90;;;14.60;99.90;;;;;;5018055;28;20159;-92
2021/10/02 08:58:01;;;;;;;4.65;1.70;;;14.70;99.90;;;;;;5018166;28;20198;-90
2021/10/02 09:00:28;;;;;;;6.10;2.05;;;14.80;99.90;;;;;;5017903;28;20184;-90
2021/10/02 09:03:06;;;;;;;4.15;1.92;;;14.90;99.90;;;;;;5018035;28;20167;-91
2021/10/02 09:05:49;;;;;;;4.55;1.70;;;15.20;99.90;;;;;;5017393;28;20162;-91
2021/10/02 09:08:19;;;;;;;3.50;1.83;;;15.40;99.90;;;;;;5017937;28;20199;-91
2021/10/02 09:11:02;;;;;;;2.80;1.48;;;15.40;99.90;;;;;;5017857;28;20198;-91
2021/10/02 09:13:28;;;;;;;4.00;1.70;;;15.40;99.90;;;;;;5017528;28;20608;-90
2021/10/02 09:15:56;;;;;;;3.38;1.55;;;15.40;99.90;;;;;;5017705;28;20201;-90
2021/10/02 09:18:46;;;;;;;2.80;1.50;;;15.30;99.90;;;;;;5017607;28;20591;-91
2021/10/02 09:21:12;;;;;;;3.88;1.45;;;15.20;99.90;;;;;;5015379;28;20223;-93
2021/10/02 09:23:45;;;;;;;2.60;1.50;;;15.10;99.90;;;;;;5017554;28;20170;-90
2021/10/02 09:27:10;;;;;;;2.42;1.50;;;15.10;99.90;;;;;;5018530;28;20260;-91
2021/10/02 09:29:41;;;;;;;2.55;1.52;;;15.00;99.90;;;;;;5017254;28;20198;-90
2021/10/02 09:32:12;;;;;;;3.90;1.38;;;15.00;99.90;;;;;;5017392;28;20189;-91
2021/10/02 09:34:49;;;;;;;2.13;1.30;;;14.90;99.90;;;;;;5017370;28;20230;-91
2021/10/02 09:37:22;;;;;;;4.40;1.38;;;15.00;99.90;;;;;;5017254;28;20257;-91
2021/10/02 09:40:19;;;;;;;3.10;1.45;;;14.90;99.90;;;;;;5017263;28;20195;-91
2021/10/02 09:43:05;;;;;;;1.95;1.30;;;14.90;99.90;;;;;;5017253;28;20171;-90
2021/10/02 09:46:03;;;;;;;3.67;1.42;;;14.90;99.90;;;;;;5017201;28;20173;-91
2021/10/02 09:48:32;;;;;;;3.90;1.40;;;14.80;99.90;;;;;;5017095;28;20203;-91
2021/10/02 09:51:21;;;;;;;3.53;1.65;;;14.80;99.90;;;;;;5017060;28;20167;-91
2021/10/02 09:53:46;;;;;;;4.63;1.17;;;14.80;99.90;;;;;;5016868;28;20205;-91
2021/10/02 09:56:14;;;;;;;1.92;1.20;;;14.80;99.90;;;;;;5016974;28;20623;-90
2021/10/02 09:58:53;;;;;;;1.73;1.38;;;14.80;99.90;;;;;;5016798;28;20194;-92
2021/10/02 10:01:27;;;;;;;3.03;1.70;;;14.80;99.90;;;;;;5016756;28;20186;-91
2021/10/02 10:03:54;;;;;;;2.22;1.30;;;14.90;99.90;;;;;;5016829;28;20545;-90
2021/10/02 10:06:29;;;;;;;2.75;1.08;;;14.90;99.90;;;;;;5016671;28;20175;-91
2021/10/02 10:09:14;;;;;;;3.10;1.42;;;15.00;99.90;;;;;;5016688;28;20260;-91
2021/10/02 10:11:58;;;;;;;2.83;1.33;;;15.10;99.90;;;;;;5016780;28;20266;-92
2021/10/02 10:14:37;;;;;;;3.10;1.48;;;15.30;99.90;;;;;;5016753;28;20234;-91
2021/10/02 10:17:08;;;;;;;3.78;1.40;;;15.50;99.90;;;;;;5017991;28;20163;-90
2021/10/02 10:19:34;;;;;;;4.07;1.40;;;15.60;99.90;;;;;;5020491;28;20273;-91
2021/10/02 10:22:10;;;;;;;2.97;1.27;;;15.70;99.90;;;;;;5020773;28;20190;-92
2021/10/02 10:25:24;;;;;;;5.28;1.60;;;15.80;99.90;;;;;;5020611;28;20174;-90
2021/10/02 10:27:50;;;;;;;2.85;1.60;;;15.90;99.90;;;;;;5020533;28;20253;-92
2021/10/02 10:30:25;;;;;;;3.40;1.27;;;16.10;99.90;;;;;;5021117;28;20272;-90
2021/10/02 10:32:56;;;;;;;3.53;1.60;;;16.30;99.90;;;;;;5020493;28;20221;-90
2021/10/02 10:38:43;;;;;;;2.10;1.40;;;16.30;99.90;;;;;;5010126;28;20724;-91
2021/10/02 10:41:13;;;;;;;2.45;1.30;;;16.40;99.90;;;;;;5020330;28;20166;-91
2021/10/02 10:43:44;;;;;;;3.17;1.45;;;16.50;99.90;;;;;;5020283;28;20205;-91
2021/10/02 10:46:22;;;;;;;2.70;1.33;;;16.40;99.90;;;;;;5020716;28;20178;-90
2021/10/02 10:48:49;;;;;;;1.50;1.10;;;16.50;99.90;;;;;;5020351;28;20237;-92
2021/10/02 10:51:32;;;;;;;3.97;1.45;;;16.50;99.90;;;;;;5020499;28;20258;-91
2021/10/02 10:54:20;;;;;;;5.10;1.63;;;16.40;99.90;;;;;;5020060;28;20209;-90
2021/10/02 10:56:59;;;;;;;5.07;2.13;;;16.50;99.90;;;;;;5020321;28;20221;-91
2021/10/02 11:00:18;;;;;;;4.65;2.13;;;16.40;99.90;;;;;;5020003;28;20646;-91
2021/10/02 11:02:45;;;;;;;3.88;2.00;;;16.30;99.90;;;;;;5020220;28;20171;-90
2021/10/02 11:05:37;;;;;;;3.10;1.73;;;16.30;99.90;;;;;;5020042;28;20661;-91
2021/10/02 11:08:10;;;;;;;4.10;2.10;;;16.30;99.90;;;;;;5019801;28;20283;-89
2021/10/02 11:10:43;;;;;;;2.67;1.52;;;16.30;99.90;;;;;;5019598;28;20186;-91
2021/10/02 11:13:45;;;;;;;2.25;1.27;;;16.30;99.90;;;;;;5020007;28;20195;-90
2021/10/02 11:16:38;;;;;;;4.38;1.80;;;16.30;99.90;;;;;;5011795;28;20239;-90
2021/10/02 11:19:42;;;;;;;2.50;1.60;;;16.30;99.90;;;;;;5017201;28;20223;-91
2021/10/02 11:22:57;;;;;;;3.38;1.73;;;16.30;99.90;;;;;;5020001;28;20170;-91
2021/10/02 11:25:24;;;;;;;3.20;1.88;;;16.40;99.90;;;;;;5019780;28;20189;-91
2021/10/02 11:28:22;;;;;;;3.60;1.60;;;16.50;99.90;;;;;;5019217;28;20290;-91
2021/10/02 11:30:52;;;;;;;3.20;1.98;;;16.50;99.90;;;;;;5020121;28;20633;-90
2021/10/02 11:33:55;;;;;;;2.70;1.40;;;16.50;99.90;;;;;;5019405;28;20203;-90
2021/10/02 11:36:31;;;;;;;2.58;1.23;;;16.60;99.90;;;;;;5052423;28;20174;-91
2021/10/02 11:39:12;;;;;;;2.05;1.20;;;16.60;99.90;;;;;;5019513;28;20201;-91
2021/10/02 11:41:40;;;;;;;4.40;1.35;;;16.60;99.90;;;;;;5019589;28;20170;-90
2021/10/02 11:44:08;;;;;;;5.85;1.85;;;16.60;99.90;;;;;;5019484;28;20170;-91
2021/10/02 11:46:39;;;;;;;3.13;1.75;;;16.70;99.90;;;;;;5019138;28;20700;-89
2021/10/02 11:49:16;;;;;;;3.90;1.40;;;16.80;99.90;;;;;;5018853;28;20692;-90
2021/10/02 11:52:10;;;;;;;2.75;1.30;;;16.90;99.90;;;;;;5019273;28;20170;-90
2021/10/02 11:54:39;;;;;;;2.88;1.40;;;16.90;99.90;;;;;;5019259;28;20293;-91
2021/10/02 11:57:17;;;;;;;4.32;1.33;;;17.00;99.90;;;;;;5018962;28;20177;-90
2021/10/02 11:59:55;;;;;;;3.72;1.38;;;17.00;99.90;;;;;;5019018;28;20198;-90
2021/10/02 12:02:24;;;;;;;3.15;1.48;;;16.90;99.90;;;;;;5019349;28;20229;-91
2021/10/02 12:04:57;;;;;;;2.67;1.40;;;16.90;99.90;;;;;;5019020;28;20174;-91
2021/10/02 12:07:22;;;;;;;2.40;1.23;;;17.00;99.90;;;;;;5019292;28;20166;-89
2021/10/02 12:10:08;;;;;;;2.85;1.48;;;17.20;99.90;;;;;;5018666;28;20205;-90
2021/10/02 12:12:49;;;;;;;2.72;1.60;;;17.20;99.90;;;;;;5018805;28;20211;-91
2021/10/02 12:15:47;;;;;;;2.78;1.33;;;17.20;99.90;;;;;;5019017;28;20171;-91
2021/10/02 12:18:16;;;;;;;2.65;1.50;;;17.10;99.90;;;;;;5018854;28;20281;-90
2021/10/02 12:20:45;;;;;;;3.08;1.65;;;17.00;99.90;;;;;;4999066;28;20183;-90
2021/10/02 12:23:16;;;;;;;2.75;1.50;;;16.90;99.90;;;;;;4999115;28;20642;-91
2021/10/02 12:25:42;;;;;;;3.72;1.50;;;16.90;99.90;;;;;;4999076;28;20183;-90
2021/10/02 12:28:07;;;;;;;2.05;1.50;;;16.90;99.90;;;;;;4999046;28;20199;-90
2021/10/02 12:30:39;;;;;;;2.25;1.23;;;16.90;99.90;;;;;;4999039;28;20224;-90
2021/10/02 12:33:05;;;;;;;2.17;1.13;;;16.90;99.90;;;;;;4998842;28;20207;-90
2021/10/02 12:35:43;;;;;;;1.95;1.20;;;17.00;99.90;;;;;;4998897;28;20642;-90
2021/10/02 12:38:09;;;;;;;2.30;1.42;;;17.10;99.90;;;;;;4998735;28;20556;-90
2021/10/02 12:40:50;;;;;;;2.08;1.30;;;17.20;99.90;;;;;;4997737;28;20175;-90
2021/10/02 12:43:16;;;;;;;3.08;1.17;;;17.30;99.90;;;;;;4998584;28;20229;-90
2021/10/02 12:45:44;;;;;;;1.42;0.90;;;17.30;99.90;;;;;;5031508;28;20171;-91
2021/10/02 12:48:12;;;;;;;2.78;1.20;;;17.40;99.90;;;;;;4998555;28;20209;-89
2021/10/02 12:50:43;;;;;;;3.28;1.13;;;17.40;99.90;;;;;;4998382;28;20183;-91
2021/10/02 12:53:12;;;;;;;4.50;1.00;;;17.40;99.90;;;;;;4998404;28;20211;-91
2021/10/02 12:55:39;;;;;;;1.77;0.85;;;17.50;99.90;;;;;;4998412;28;20673;-90
2021/10/02 12:58:21;;;;;;;1.23;1.00;;;17.50;99.90;;;;;;4998704;28;20199;-89
2021/10/02 13:00:56;;;;;;;1.80;0.90;;;17.60;99.90;;;;;;4998491;28;20252;-91
2021/10/02 13:03:23;;;;;;;1.33;0.80;;;17.70;99.90;;;;;;4998506;28;20167;-89
2021/10/02 13:09:07;;;;;;;1.50;0.90;;;17.80;99.90;;;;;;5016466;28;20199;-90
2021/10/02 13:11:33;;;;;;;2.65;0.90;;;18.00;99.90;;;;;;4998101;28;20178;-90
2021/10/02 13:13:59;;;;;;;6.70;1.08;;;18.10;99.90;;;;;;4997835;28;20242;-90
2021/10/02 13:16:29;;;;;;;1.63;1.13;;;18.20;99.90;;;;;;4998085;28;20170;-91
2021/10/02 13:19:32;;;;;;;1.95;1.08;;;18.20;99.90;;;;;;5003213;28;20234;-91
2021/10/02 13:25:40;;;;;;;2.25;1.20;;;18.00;99.90;;;;;;5035209;28;20585;-91
2021/10/02 13:28:43;;;;;;;4.78;1.17;;;17.80;99.90;;;;;;5017402;28;20205;-91
2021/10/02 13:31:21;;;;;;;2.95;1.40;;;17.60;99.90;;;;;;5017508;28;20241;-91
2021/10/02 13:34:10;;;;;;;3.60;1.67;;;17.50;99.90;;;;;;5017305;28;20205;-92
2021/10/02 13:40:30;;;;;;;3.58;1.65;;;17.40;99.90;;;;;;5033924;28;20329;-91
2021/10/02 13:45:54;;;;;;;2.17;1.17;;;17.40;99.90;;;;;;5035041;28;20161;-90
2021/10/02 13:48:30;;;;;;;2.40;1.10;;;17.50;99.90;;;;;;5017089;28;20208;-91
2021/10/02 13:50:59;;;;;;;2.75;1.25;;;17.40;99.90;;;;;;5016789;28;20716;-91
2021/10/02 13:53:36;;;;;;;1.75;1.10;;;17.40;99.90;;;;;;5017145;28;20233;-90
2021/10/02 13:56:42;;;;;;;1.92;1.10;;;17.30;99.90;;;;;;5017189;28;20182;-90
2021/10/02 13:59:09;;;;;;;2.00;1.00;;;17.30;99.90;;;;;;5017158;28;20202;-91
2021/10/02 14:01:47;;;;;;;1.20;0.73;;;17.30;99.90;;;;;;5017076;28;20170;-90
2021/10/02 14:04:31;;;;;;;2.20;0.77;;;17.20;99.90;;;;;;5017094;28;20175;-90
2021/10/02 14:07:37;;;;;;;4.97;0.98;;;17.20;99.90;;;;;;5016841;28;20170;-91
2021/10/02 14:10:08;;;;;;;3.92;1.15;;;17.20;99.90;;;;;;5016868;28;20167;-91
2021/10/02 14:12:34;;;;;;;1.70;0.90;;;17.20;99.90;;;;;;5017097;28;20167;-91
2021/10/02 14:15:10;;;;;;;1.80;1.00;;;17.20;99.90;;;;;;5016773;28;20221;-91
2021/10/02 14:18:12;;;;;;;1.35;0.80;;;17.20;99.90;;;;;;5016821;28;20173;-91
2021/10/02 14:20:57;;;;;;;2.15;0.80;;;17.20;99.90;;;;;;5016922;28;20324;-90
2021/10/02 14:23:23;;;;;;;1.15;0.70;;;17.20;99.90;;;;;;5016848;28;20166;-91
2021/10/02 14:25:51;;;;;;;3.40;0.98;;;17.20;99.90;;;;;;5016713;28;20178;-92
2021/10/02 14:28:39;;;;;;;1.63;0.77;;;17.20;99.90;;;;;;5016735;28;20210;-92
2021/10/02 14:31:07;;;;;;;1.15;0.80;;;17.20;99.90;;;;;;5016616;28;20178;-91
2021/10/02 14:33:33;;;;;;;1.52;0.80;;;17.20;99.90;;;;;;5016562;28;20203;-91
2021/10/02 14:36:16;;;;;;;2.10;0.80;;;17.20;99.90;;;;;;5016676;28;20170;-91
2021/10/02 14:38:49;;;;;;;2.75;0.90;;;17.20;99.90;;;;;;5016617;28;20194;-90
2021/10/02 14:41:21;;;;;;;1.67;0.90;;;17.20;99.90;;;;;;5016686;28;20163;-91
2021/10/02 14:43:47;;;;;;;2.83;0.80;;;17.20;99.90;;;;;;5016712;28;20178;-91
2021/10/02 14:46:44;;;;;;;2.38;1.00;;;17.20;99.90;;;;;;5016615;28;20225;-91
2021/10/02 14:49:10;;;;;;;2.22;0.77;;;17.20;99.90;;;;;;5016508;28;20658;-91
2021/10/02 14:51:50;;;;;;;2.90;1.00;;;17.10;99.90;;;;;;5016593;28;20178;-91
2021/10/02 14:54:18;;;;;;;1.50;0.70;;;17.10;99.90;;;;;;5016299;28;20623;-91